Time;durP1;ratioP1;P1;durP2;ratioP2;P2;SDS_P1;SDS_P2;PMS_P1;PMS_P2;Temp;Humidity;BMP_temperature;BMP_pressure;BME280_temperature;BME280_humidity;BME280_pressure;Samples;Min_cycle;Max_cycle;Signal;HPM_P1;HPM_P2
2022/03/05 00:00:30;;;;;;;7.72;7.32;;;;;;;0.16;100.00;100867.78;5069698;28;20037;-66
2022/03/05 00:02:57;;;;;;;8.20;7.70;;;;;;;0.11;100.00;100875.88;5074159;28;20476;-68
2022/03/05 00:05:23;;;;;;;8.52;8.02;;;;;;;0.05;100.00;100868.44;5067998;28;20059;-67
2022/03/05 00:07:48;;;;;;;7.60;7.20;;;;;;;0.12;100.00;100881.94;5069033;28;20436;-66
2022/03/05 00:10:14;;;;;;;7.68;7.28;;;;;;;0.01;100.00;100869.59;5069568;28;20017;-68
2022/03/05 00:12:40;;;;;;;8.43;7.93;;;;;;;-0.02;100.00;100873.22;5068872;28;20407;-69
2022/03/05 00:15:06;;;;;;;8.05;7.63;;;;;;;0.01;100.00;100872.19;5070257;28;20029;-67
2022/03/05 00:17:32;;;;;;;8.52;8.02;;;;;;;-0.02;100.00;100875.00;5069746;28;20043;-68
2022/03/05 00:19:57;;;;;;;7.80;7.40;;;;;;;-0.21;100.00;100846.66;5069520;28;20020;-66
2022/03/05 00:22:23;;;;;;;8.23;7.75;;;;;;;-0.05;100.00;100877.81;5067292;28;20516;-66
2022/03/05 00:24:49;;;;;;;8.27;7.78;;;;;;;-0.04;100.00;100874.25;5071202;28;20024;-65
2022/03/05 00:27:16;;;;;;;10.95;10.13;;;;;;;-0.04;100.00;100874.25;5069372;28;20024;-68
2022/03/05 00:29:42;;;;;;;10.13;9.43;;;;;;;-0.04;100.00;100869.88;5070784;28;20035;-66
2022/03/05 00:32:08;;;;;;;8.32;7.82;;;;;;;-0.07;100.00;100866.66;5071620;28;20025;-71
2022/03/05 00:34:33;;;;;;;8.18;7.68;;;;;;;-0.06;100.00;100870.94;5074143;28;20047;-68
2022/03/05 00:36:59;;;;;;;7.45;7.05;;;;;;;-0.07;100.00;100874.47;5073622;28;20028;-69
2022/03/05 00:39:25;;;;;;;7.50;7.10;;;;;;;-0.17;100.00;100860.31;5072244;28;20102;-68
2022/03/05 00:41:50;;;;;;;7.65;7.25;;;;;;;-0.14;100.00;100870.56;5074426;28;20117;-68
2022/03/05 00:44:16;;;;;;;7.80;7.40;;;;;;;-0.28;100.00;100848.00;5073530;28;20051;-69
2022/03/05 00:46:42;;;;;;;7.60;7.20;;;;;;;-0.22;100.00;100862.38;5074341;28;20032;-67
2022/03/05 00:49:07;;;;;;;7.47;7.07;;;;;;;-0.29;100.00;100860.19;5072291;28;20489;-68
2022/03/05 00:51:33;;;;;;;7.30;6.90;;;;;;;-0.28;100.00;100858.41;5073671;28;20119;-67
2022/03/05 00:53:58;;;;;;;8.25;7.75;;;;;;;-0.35;100.00;100857.13;5072354;28;20107;-67
2022/03/05 00:56:24;;;;;;;7.72;7.32;;;;;;;-0.35;100.00;100859.72;5073288;28;20031;-66
2022/03/05 00:58:49;;;;;;;7.28;6.88;;;;;;;-0.40;100.00;100851.34;5072752;28;20052;-67
2022/03/05 01:01:15;;;;;;;6.93;6.63;;;;;;;-0.44;100.00;100852.47;5069765;28;20025;-66
2022/03/05 01:03:41;;;;;;;7.50;7.10;;;;;;;-0.51;100.00;100853.78;5070903;28;20373;-68
2022/03/05 01:06:06;;;;;;;7.55;7.15;;;;;;;-0.53;100.00;100851.28;5070531;28;20032;-67
2022/03/05 01:08:33;;;;;;;8.30;7.80;;;;;;;-0.55;100.00;100842.72;5069139;28;20113;-66
2022/03/05 01:10:59;;;;;;;7.25;6.90;;;;;;;-0.51;100.00;100848.56;5072809;28;20132;-63
2022/03/05 01:13:25;;;;;;;7.32;6.93;;;;;;;-0.51;100.00;100849.44;5073313;28;20043;-67
2022/03/05 01:15:50;;;;;;;7.55;7.15;;;;;;;-0.60;100.00;100844.78;5072928;28;20036;-66
2022/03/05 01:18:16;;;;;;;7.28;6.88;;;;;;;-0.54;100.00;100849.59;5071354;28;20123;-64
2022/03/05 01:20:42;;;;;;;7.78;7.38;;;;;;;-0.58;100.00;100854.19;5073230;28;20498;-65
2022/03/05 01:23:07;;;;;;;8.18;7.68;;;;;;;-0.56;100.00;100854.94;5072934;28;20035;-66
2022/03/05 01:25:33;;;;;;;7.45;7.05;;;;;;;-0.56;100.00;100851.47;5072372;28;20039;-65
2022/03/05 01:27:58;;;;;;;7.68;7.28;;;;;;;-0.53;100.00;100853.88;5072164;28;20024;-67
2022/03/05 01:30:24;;;;;;;7.50;7.10;;;;;;;-0.53;100.00;100848.69;5085254;28;20138;-66
2022/03/05 01:32:50;;;;;;;8.63;8.13;;;;;;;-0.51;100.00;100861.59;5072924;28;20036;-64
2022/03/05 01:35:15;;;;;;;8.27;7.78;;;;;;;-0.43;100.00;100862.81;5071800;28;20387;-66
2022/03/05 01:37:41;;;;;;;8.00;7.50;;;;;;;-0.44;100.00;100860.28;5071505;28;20464;-64
2022/03/05 01:40:07;;;;;;;8.40;7.90;;;;;;;-0.44;100.00;100863.75;5071073;28;20029;-64
2022/03/05 01:42:32;;;;;;;8.35;7.85;;;;;;;-0.40;100.00;100861.78;5071031;28;20096;-62
2022/03/05 01:44:58;;;;;;;8.02;7.57;;;;;;;-0.41;100.00;100860.94;5072601;28;20051;-63
2022/03/05 01:47:24;;;;;;;7.65;7.25;;;;;;;-0.40;100.00;100857.41;5071826;28;20398;-64
2022/03/05 01:49:49;;;;;;;8.52;8.02;;;;;;;-0.42;100.00;100861.06;5069450;28;20058;-64
2022/03/05 01:52:15;;;;;;;9.38;8.75;;;;;;;-0.35;100.00;100867.56;5069876;28;20512;-66
2022/03/05 01:54:41;;;;;;;7.38;6.97;;;;;;;-0.31;100.00;100869.84;5071908;28;20396;-64
2022/03/05 01:57:07;;;;;;;7.20;6.80;;;;;;;-0.31;100.00;100869.03;5071971;28;20104;-64
2022/03/05 01:59:34;;;;;;;7.47;7.07;;;;;;;-0.32;100.00;100870.78;5069789;28;20128;-64
2022/03/05 02:01:59;;;;;;;7.50;7.10;;;;;;;-0.31;100.00;100867.25;5066652;28;20028;-68
2022/03/05 02:04:25;;;;;;;7.78;7.38;;;;;;;-0.32;100.00;100870.78;5064159;28;20036;-67
2022/03/05 02:06:53;;;;;;;7.75;7.32;;;;;;;-0.23;100.00;100876.34;5067966;28;20032;-67
2022/03/05 02:09:19;;;;;;;7.57;7.18;;;;;;;-0.30;100.00;100871.53;5063113;28;20503;-68
2022/03/05 02:11:45;;;;;;;7.10;6.78;;;;;;;-0.22;100.00;100872.81;5070246;28;20048;-67
2022/03/05 02:14:11;;;;;;;7.80;7.40;;;;;;;-0.21;100.00;100874.50;5069897;28;20064;-66
2022/03/05 02:16:36;;;;;;;7.85;7.45;;;;;;;-0.24;100.00;100874.69;5071786;28;20544;-67
2022/03/05 02:19:04;;;;;;;7.70;7.30;;;;;;;-0.13;100.00;100877.47;5071616;28;20036;-66
2022/03/05 02:21:30;;;;;;;7.53;7.13;;;;;;;-0.16;100.00;100882.84;5071882;28;20036;-68
2022/03/05 02:23:56;;;;;;;7.35;6.95;;;;;;;-0.13;100.00;100877.47;5069030;28;20019;-68
2022/03/05 02:26:22;;;;;;;7.53;7.13;;;;;;;-0.17;100.00;100875.97;5070082;28;20017;-68
2022/03/05 02:28:49;;;;;;;7.85;7.45;;;;;;;-0.16;100.00;100872.44;5071331;28;20036;-67
2022/03/05 02:31:15;;;;;;;8.25;7.75;;;;;;;-0.12;100.00;100876.53;5070798;28;20024;-67
2022/03/05 02:33:42;;;;;;;7.43;7.03;;;;;;;-0.16;100.00;100872.44;5071286;28;20065;-67
2022/03/05 02:36:08;;;;;;;7.75;7.35;;;;;;;-0.11;100.00;100873.81;5066703;28;20036;-67
2022/03/05 02:38:33;;;;;;;8.30;7.80;;;;;;;-0.10;100.00;100883.31;5070800;28;20479;-68
2022/03/05 02:40:58;;;;;;;7.53;7.13;;;;;;;-0.11;100.00;100883.41;5071164;28;20028;-66
2022/03/05 02:43:25;;;;;;;8.20;7.70;;;;;;;-0.10;100.00;100874.66;5071364;28;20020;-67
2022/03/05 02:45:51;;;;;;;8.00;7.50;;;;;;;-0.08;100.00;100880.59;5071102;28;20395;-67
2022/03/05 02:48:18;;;;;;;7.82;7.43;;;;;;;-0.08;100.00;100877.97;5070510;28;20028;-67
2022/03/05 02:50:44;;;;;;;7.40;7.00;;;;;;;-0.07;100.00;100877.91;5067536;28;20028;-68
2022/03/05 02:53:10;;;;;;;8.05;7.57;;;;;;;-0.12;100.00;100874.75;5070647;28;20111;-67
2022/03/05 02:55:36;;;;;;;7.47;7.07;;;;;;;-0.09;100.00;100874.53;5067681;28;20440;-68
2022/03/05 02:58:03;;;;;;;7.30;6.90;;;;;;;-0.08;100.00;100880.59;5072212;28;20055;-68
2022/03/05 03:00:29;;;;;;;7.72;7.32;;;;;;;-0.08;100.00;100877.97;5084109;28;20491;-68
2022/03/05 03:02:54;;;;;;;8.20;7.72;;;;;;;-0.05;100.00;100883.03;5071435;28;20032;-67
2022/03/05 03:05:21;;;;;;;7.80;7.40;;;;;;;-0.05;100.00;100878.63;5071224;28;20039;-68
2022/03/05 03:07:48;;;;;;;7.70;7.30;;;;;;;-0.04;100.00;100882.91;5068640;28;20495;-67
2022/03/05 03:10:15;;;;;;;7.75;7.35;;;;;;;-0.05;100.00;100881.25;5086133;28;20058;-68
2022/03/05 03:12:41;;;;;;;7.40;7.00;;;;;;;-0.03;100.00;100881.97;5072028;28;20561;-67
2022/03/05 03:15:09;;;;;;;7.43;7.03;;;;;;;-0.03;100.00;100886.38;5071017;28;20028;-67
2022/03/05 03:17:45;;;;;;;8.10;7.60;;;;;;;-0.05;100.00;100883.03;5071003;28;20032;-67
2022/03/05 03:20:13;;;;;;;7.50;7.10;;;;;;;0.01;100.00;100887.03;5071721;28;20035;-67
2022/03/05 03:22:39;;;;;;;7.60;7.20;;;;;;;0.07;100.00;100886.59;5070713;28;20366;-67
2022/03/05 03:25:05;;;;;;;7.80;7.40;;;;;;;0.01;100.00;100887.03;5070584;28;20020;-67
2022/03/05 03:27:31;;;;;;;7.65;7.25;;;;;;;0.01;100.00;100890.47;5072186;28;20419;-68
2022/03/05 03:29:57;;;;;;;7.85;7.45;;;;;;;0.02;100.00;100891.28;5070775;28;20112;-67
2022/03/05 03:32:22;;;;;;;6.97;6.68;;;;;;;-0.10;100.00;100872.03;5066580;28;20021;-68
2022/03/05 03:34:49;;;;;;;7.45;7.05;;;;;;;-0.03;100.00;100896.78;5070729;28;20439;-68
2022/03/05 03:37:15;;;;;;;7.63;7.22;;;;;;;-0.04;100.00;100895.13;5068587;28;20109;-68
2022/03/05 03:39:41;;;;;;;7.47;7.07;;;;;;;0.02;100.00;100899.97;5070956;28;20534;-69
2022/03/05 03:42:06;;;;;;;7.40;7.00;;;;;;;0.04;100.00;100905.06;5070925;28;20043;-68
2022/03/05 03:44:32;;;;;;;7.50;7.10;;;;;;;0.04;100.00;100902.47;5071026;28;20020;-67
2022/03/05 03:46:57;;;;;;;8.15;7.72;;;;;;;-0.02;100.00;100898.47;5061316;28;20033;-67
2022/03/05 03:49:23;;;;;;;7.40;7.00;;;;;;;0.02;100.00;100899.97;5075876;28;20033;-67
2022/03/05 03:51:49;;;;;;;7.18;6.88;;;;;;;0.02;100.00;100904.34;5067037;28;20033;-67
2022/03/05 03:54:14;;;;;;;7.63;7.22;;;;;;;0.01;100.00;100900.91;5071226;28;20695;-67
2022/03/05 03:56:40;;;;;;;7.32;6.93;;;;;;;0.08;100.00;100899.56;5069547;28;20028;-67
2022/03/05 03:59:05;;;;;;;7.60;7.20;;;;;;;-0.01;100.00;100890.53;5070256;28;20056;-67
2022/03/05 04:01:31;;;;;;;7.57;7.18;;;;;;;0.06;100.00;100897.97;5073210;28;20127;-67
2022/03/05 04:03:56;;;;;;;7.90;7.50;;;;;;;0.08;100.00;100902.19;5071190;28;20059;-67
2022/03/05 04:06:22;;;;;;;7.53;7.13;;;;;;;0.06;100.00;100905.78;5074075;28;20083;-67
2022/03/05 04:08:47;;;;;;;7.10;6.80;;;;;;;0.09;100.00;100903.00;5074081;28;20028;-67
2022/03/05 04:11:18;;;;;;;7.75;7.35;;;;;;;0.09;100.00;100906.44;5072718;28;20028;-68
2022/03/05 04:13:45;;;;;;;7.85;7.45;;;;;;;0.08;100.00;100906.56;5073666;28;20112;-68
2022/03/05 04:16:12;;;;;;;7.53;7.13;;;;;;;0.08;100.00;100907.41;5073500;28;20032;-67
2022/03/05 04:18:38;;;;;;;7.30;6.90;;;;;;;0.12;100.00;100913.22;5074185;28;20638;-67
2022/03/05 04:21:06;;;;;;;7.53;7.13;;;;;;;0.10;100.00;100913.34;5074125;28;20635;-68
2022/03/05 04:23:32;;;;;;;7.68;7.28;;;;;;;0.05;100.00;100915.41;5073935;28;20029;-68
2022/03/05 04:25:58;;;;;;;8.50;7.97;;;;;;;-0.01;100.00;100905.34;5071761;28;20044;-68
2022/03/05 04:28:24;;;;;;;7.90;7.47;;;;;;;0.05;100.00;100920.63;5071026;28;20028;-67
2022/03/05 04:30:49;;;;;;;7.25;6.90;;;;;;;0.04;100.00;100921.56;5073072;28;20051;-67
2022/03/05 04:33:15;;;;;;;8.40;7.90;;;;;;;0.06;100.00;100924.06;5071307;28;20032;-67
2022/03/05 04:35:40;;;;;;;8.63;8.13;;;;;;;0.04;100.00;100923.31;5073319;28;20043;-68
2022/03/05 04:38:06;;;;;;;8.55;8.05;;;;;;;-0.01;100.00;100919.22;5073751;28;20025;-68
2022/03/05 04:40:32;;;;;;;8.35;7.85;;;;;;;-0.02;100.00;100929.75;5073777;28;20031;-67
2022/03/05 04:42:59;;;;;;;7.60;7.20;;;;;;;0.01;100.00;100923.53;5070904;28;20420;-67
2022/03/05 04:45:25;;;;;;;7.88;7.47;;;;;;;0.01;100.00;100934.81;5074006;28;20131;-67
2022/03/05 04:47:51;;;;;;;7.35;6.95;;;;;;;0.02;100.00;100930.41;5073462;28;20039;-67
2022/03/05 04:50:17;;;;;;;7.65;7.25;;;;;;;-0.04;100.00;100937.69;5073921;28;20450;-67
2022/03/05 04:52:42;;;;;;;8.07;7.57;;;;;;;0.01;100.00;100952.22;5074283;28;20024;-67
2022/03/05 04:55:08;;;;;;;7.50;7.10;;;;;;;0.01;100.00;100944.41;5072705;28;20024;-68
2022/03/05 04:57:34;;;;;;;8.40;7.90;;;;;;;-0.05;100.00;100953.44;5070207;28;20044;-68
2022/03/05 04:59:59;;;;;;;8.43;7.93;;;;;;;-0.07;100.00;100957.91;5073261;28;20040;-69
2022/03/05 05:02:25;;;;;;;9.63;8.95;;;;;;;-0.07;100.00;100960.53;5071666;28;20041;-67
2022/03/05 05:04:50;;;;;;;9.38;8.77;;;;;;;-0.09;100.00;100955.38;5069485;28;20036;-67
2022/03/05 05:07:16;;;;;;;7.97;7.53;;;;;;;-0.06;100.00;100968.25;5074388;28;20032;-67
2022/03/05 05:09:42;;;;;;;7.75;7.35;;;;;;;-0.06;100.00;100967.41;5074173;28;20024;-68
2022/03/05 05:12:09;;;;;;;8.48;7.97;;;;;;;-0.11;100.00;100964.25;5075942;28;20031;-67
2022/03/05 05:14:34;;;;;;;8.20;7.75;;;;;;;-0.05;100.00;100974.28;5079534;28;20037;-67
2022/03/05 05:17:00;;;;;;;7.80;7.40;;;;;;;0.07;100.00;100980.50;5074161;28;20035;-68
2022/03/05 05:19:27;;;;;;;7.88;7.47;;;;;;;0.08;100.00;100963.94;5072982;28;20508;-68
2022/03/05 05:21:59;;;;;;;8.57;8.07;;;;;;;0.33;100.00;100971.88;5071854;28;20036;-68
2022/03/05 05:24:26;;;;;;;8.52;8.02;;;;;;;0.72;100.00;100981.50;5086102;28;20078;-69
2022/03/05 05:26:52;;;;;;;8.30;7.80;;;;;;;1.52;100.00;100982.22;5083641;28;20081;-68
2022/03/05 05:29:17;;;;;;;7.63;7.22;;;;;;;1.24;100.00;100980.66;5072652;28;20035;-67
2022/03/05 05:31:43;;;;;;;7.70;7.30;;;;;;;1.34;99.96;100989.56;5073514;28;20025;-69
2022/03/05 05:34:08;;;;;;;7.32;6.93;;;;;;;2.80;93.79;100993.16;5072924;28;20476;-68
2022/03/05 05:36:36;;;;;;;6.95;6.65;;;;;;;3.39;86.97;100993.09;5071604;28;20040;-68
2022/03/05 05:39:02;;;;;;;6.93;6.63;;;;;;;4.48;82.48;100985.38;5068315;28;20056;-68
2022/03/05 05:41:28;;;;;;;6.53;6.22;;;;;;;4.88;79.92;100995.25;5078991;28;20483;-68
2022/03/05 05:43:53;;;;;;;7.53;7.13;;;;;;;5.30;78.38;101000.53;5071945;28;20027;-69
2022/03/05 05:46:19;;;;;;;8.05;7.57;;;;;;;5.78;75.37;101012.13;5070947;28;20025;-67
2022/03/05 05:48:44;;;;;;;8.05;7.63;;;;;;;5.88;73.87;101009.56;5070337;28;20032;-67
2022/03/05 05:51:10;;;;;;;7.53;7.13;;;;;;;6.13;71.82;101012.72;5070288;28;20035;-69
2022/03/05 05:53:35;;;;;;;6.80;6.50;;;;;;;5.49;73.22;101016.41;5069120;28;20633;-68
2022/03/05 05:56:00;;;;;;;7.70;7.30;;;;;;;4.55;78.36;101015.41;5070492;28;20032;-68
2022/03/05 05:58:26;;;;;;;8.55;8.05;;;;;;;5.07;75.35;101015.56;5070590;28;20040;-68
2022/03/05 06:00:51;;;;;;;7.43;7.03;;;;;;;6.21;72.07;101028.69;5070094;28;20539;-67
2022/03/05 06:03:17;;;;;;;7.82;7.43;;;;;;;7.36;66.59;101017.41;5071788;28;20392;-66
2022/03/05 06:05:42;;;;;;;6.85;6.55;;;;;;;5.42;71.79;101028.44;5071925;28;20123;-67
2022/03/05 06:08:08;;;;;;;7.10;6.80;;;;;;;3.35;80.71;101028.34;5068736;28;20031;-68
2022/03/05 06:10:34;;;;;;;7.78;7.38;;;;;;;3.18;83.20;101032.25;5072212;28;20032;-67
2022/03/05 06:12:59;;;;;;;7.97;7.57;;;;;;;2.65;86.09;101031.81;5070414;28;20032;-68
2022/03/05 06:15:25;;;;;;;8.20;7.80;;;;;;;2.26;87.73;101035.47;5071134;28;20037;-66
2022/03/05 06:17:52;;;;;;;7.90;7.50;;;;;;;2.07;89.30;101042.97;5070193;28;20399;-67
2022/03/05 06:20:18;;;;;;;7.60;7.22;;;;;;;1.68;91.36;101042.16;5069893;28;20028;-67
2022/03/05 06:22:43;;;;;;;9.20;8.65;;;;;;;1.83;91.60;101048.09;5069592;28;20016;-68
2022/03/05 06:25:09;;;;;;;8.93;8.43;;;;;;;1.59;93.13;101059.31;5072667;28;20031;-66
2022/03/05 06:27:34;;;;;;;7.97;7.57;;;;;;;1.53;93.21;101051.88;5071684;28;20474;-66
2022/03/05 06:30:00;;;;;;;8.38;7.88;;;;;;;1.27;95.08;101053.63;5072688;28;20101;-67
2022/03/05 06:32:25;;;;;;;8.82;8.32;;;;;;;1.47;93.71;101038.38;5072200;28;20498;-66
2022/03/05 06:34:54;;;;;;;8.93;8.43;;;;;;;1.26;95.68;101049.34;5072252;28;20039;-67
2022/03/05 06:37:23;;;;;;;8.13;7.72;;;;;;;1.34;94.74;101057.50;5070432;28;20384;-67
2022/03/05 06:39:48;;;;;;;8.68;8.18;;;;;;;1.62;94.29;101053.06;5071200;28;20039;-68
2022/03/05 06:42:15;;;;;;;9.45;8.85;;;;;;;1.97;92.57;101055.00;5086611;28;20371;-67
2022/03/05 06:44:42;;;;;;;7.40;7.10;;;;;;;2.75;88.65;101031.97;5072693;28;20089;-66
2022/03/05 06:47:07;;;;;;;7.03;6.72;;;;;;;3.20;86.46;101050.47;5069988;28;20021;-67
2022/03/05 06:49:33;;;;;;;7.07;6.78;;;;;;;3.41;85.51;101058.53;5069562;28;20141;-68
2022/03/05 06:51:59;;;;;;;7.38;6.97;;;;;;;3.05;86.22;101047.22;5069214;28;20021;-68
2022/03/05 06:54:26;;;;;;;7.93;7.53;;;;;;;3.01;87.59;101070.19;5071337;28;20093;-68
2022/03/05 06:56:51;;;;;;;7.72;7.32;;;;;;;2.66;88.67;101054.41;5070675;28;20034;-67
2022/03/05 06:59:17;;;;;;;7.65;7.25;;;;;;;3.41;87.45;101069.84;5071568;28;20423;-69
2022/03/05 07:01:42;;;;;;;7.70;7.30;;;;;;;3.78;84.40;101075.75;5071102;28;20028;-69
2022/03/05 07:04:08;;;;;;;7.47;7.07;;;;;;;4.14;84.04;101084.38;5072104;28;20042;-68
2022/03/05 07:06:34;;;;;;;7.68;7.28;;;;;;;3.65;84.82;101066.31;5072550;28;20383;-68
2022/03/05 07:09:00;;;;;;;7.93;7.53;;;;;;;3.39;86.83;101079.63;5082685;28;20029;-68
2022/03/05 07:11:25;;;;;;;7.90;7.50;;;;;;;3.29;87.11;101078.63;5068893;28;20437;-68
2022/03/05 07:13:50;;;;;;;8.40;7.90;;;;;;;3.47;85.36;101074.63;5073295;28;20028;-68
2022/03/05 07:16:16;;;;;;;8.10;7.70;;;;;;;3.67;85.67;101075.72;5074267;28;20017;-69
2022/03/05 07:18:41;;;;;;;7.80;7.40;;;;;;;3.66;85.79;101078.47;5069343;28;20384;-68
2022/03/05 07:21:07;;;;;;;7.88;7.47;;;;;;;4.03;85.21;101077.31;5070650;28;20029;-68
2022/03/05 07:23:32;;;;;;;7.13;6.82;;;;;;;3.81;85.09;101088.63;5070776;28;20025;-66
2022/03/05 07:25:58;;;;;;;7.45;7.05;;;;;;;4.10;84.30;101080.31;5067803;28;20036;-68
2022/03/05 07:28:23;;;;;;;8.90;8.40;;;;;;;4.08;84.82;101083.06;5068710;28;20096;-68
2022/03/05 07:30:49;;;;;;;8.65;8.15;;;;;;;4.62;82.95;101084.91;5068857;28;20036;-68
2022/03/05 07:33:15;;;;;;;7.75;7.35;;;;;;;5.16;81.49;101081.41;5070795;28;20032;-69
2022/03/05 07:35:41;;;;;;;7.88;7.47;;;;;;;4.89;80.39;101078.41;5047895;28;20044;-68
2022/03/05 07:38:06;;;;;;;7.97;7.57;;;;;;;5.33;78.89;101085.28;5073622;28;20077;-68
2022/03/05 07:40:32;;;;;;;10.35;9.65;;;;;;;5.38;77.46;101071.75;5070355;28;20028;-68
2022/03/05 07:42:57;;;;;;;7.80;7.40;;;;;;;5.13;76.05;101075.56;5074518;28;20428;-69
2022/03/05 07:45:23;;;;;;;8.50;8.00;;;;;;;5.32;73.79;101082.78;5074858;28;20474;-68
2022/03/05 07:47:48;;;;;;;8.23;7.82;;;;;;;6.16;70.86;101087.03;5074981;28;20032;-66
2022/03/05 07:50:14;;;;;;;7.00;6.70;;;;;;;5.88;71.35;101090.34;5074988;28;20024;-68
2022/03/05 07:52:39;;;;;;;7.82;7.43;;;;;;;6.16;69.75;101089.66;5074423;28;20029;-68
2022/03/05 07:55:06;;;;;;;7.75;7.35;;;;;;;6.35;68.26;101084.50;5070617;28;20041;-66
2022/03/05 07:57:33;;;;;;;8.15;7.75;;;;;;;6.11;67.79;101085.78;5074510;28;20097;-66
2022/03/05 07:59:58;;;;;;;7.50;7.10;;;;;;;6.78;63.97;101086.00;5070661;28;20117;-65
2022/03/05 08:02:24;;;;;;;8.18;7.78;;;;;;;6.05;65.58;101087.97;5073718;28;20032;-65
2022/03/05 08:04:49;;;;;;;7.10;6.80;;;;;;;5.41;64.57;101076.75;5073338;28;20028;-66
2022/03/05 08:07:15;;;;;;;7.72;7.32;;;;;;;5.03;67.28;101082.53;5073617;28;20048;-65
2022/03/05 08:09:43;;;;;;;8.10;7.70;;;;;;;4.84;68.75;101081.41;5074819;28;20028;-66
2022/03/05 08:12:09;;;;;;;8.57;8.10;;;;;;;5.05;69.75;101075.34;5071886;28;20032;-66
2022/03/05 08:14:37;;;;;;;10.15;9.55;;;;;;;4.67;70.48;101095.06;5073312;28;20101;-66
2022/03/05 08:17:03;;;;;;;8.55;8.07;;;;;;;4.54;71.23;101102.25;5067428;28;20021;-65
2022/03/05 08:19:29;;;;;;;8.70;8.20;;;;;;;4.57;71.29;101094.97;5072007;28;20391;-64
2022/03/05 08:21:54;;;;;;;8.57;8.07;;;;;;;4.74;71.63;101103.31;5071220;28;20024;-68
2022/03/05 08:24:21;;;;;;;7.85;7.45;;;;;;;4.18;73.85;101100.72;5071399;28;20029;-68
2022/03/05 08:26:47;;;;;;;8.85;8.35;;;;;;;4.08;74.92;101103.22;5072639;28;20028;-67
2022/03/05 08:29:12;;;;;;;8.48;7.97;;;;;;;4.12;73.90;101107.31;5072189;28;20034;-66
2022/03/05 08:34:13;;;;;;;9.93;9.32;;;;;;;3.65;73.77;101108.28;5097434;22;20050;-66
2022/03/05 08:36:39;;;;;;;9.00;8.50;;;;;;;3.43;75.48;101102.03;5033701;28;20033;-66
2022/03/05 08:39:04;;;;;;;8.57;8.07;;;;;;;3.42;75.70;101097.75;5033380;28;20029;-67
2022/03/05 08:41:30;;;;;;;8.75;8.25;;;;;;;3.23;77.50;101100.91;5038644;28;20041;-67
2022/03/05 08:43:55;;;;;;;9.25;8.73;;;;;;;3.09;77.53;101100.25;5032823;28;20028;-67
2022/03/05 08:46:21;;;;;;;9.48;8.88;;;;;;;3.08;77.15;101109.03;5035298;28;20029;-66
2022/03/05 08:48:46;;;;;;;8.63;8.13;;;;;;;2.87;75.85;101104.44;5030461;28;20021;-66
2022/03/05 08:51:12;;;;;;;8.00;7.60;;;;;;;2.96;77.06;101105.56;5032030;28;20126;-65
2022/03/05 08:53:38;;;;;;;9.02;8.50;;;;;;;2.72;76.56;101111.63;5036265;28;20032;-66
2022/03/05 08:56:04;;;;;;;8.27;7.80;;;;;;;2.51;77.09;101120.16;5032556;28;20404;-67
2022/03/05 08:58:29;;;;;;;8.25;7.82;;;;;;;2.87;76.87;101117.53;5025366;28;20033;-69
2022/03/05 09:00:55;;;;;;;8.00;7.60;;;;;;;2.48;76.98;101115.97;5050084;28;20462;-67
2022/03/05 09:03:20;;;;;;;7.95;7.55;;;;;;;2.52;77.62;101124.44;5031333;28;20084;-66
2022/03/05 09:05:47;;;;;;;8.88;8.38;;;;;;;2.22;78.93;101126.50;5026367;28;20029;-67
2022/03/05 09:08:15;;;;;;;8.02;7.63;;;;;;;1.87;80.79;101128.91;5032581;28;20037;-66
2022/03/05 09:10:40;;;;;;;7.80;7.40;;;;;;;2.12;80.94;101125.44;5025304;28;20444;-66
2022/03/05 09:13:06;;;;;;;8.48;7.97;;;;;;;2.00;81.76;101131.53;5030437;28;20029;-65
2022/03/05 09:15:31;;;;;;;8.73;8.23;;;;;;;1.91;83.34;101135.59;5031102;28;20033;-67
2022/03/05 09:17:57;;;;;;;8.65;8.15;;;;;;;2.02;83.40;101140.09;5030737;28;20527;-66
2022/03/05 09:20:22;;;;;;;9.02;8.45;;;;;;;1.73;83.02;101143.84;5047925;28;20059;-65
2022/03/05 09:22:48;;;;;;;8.43;7.93;;;;;;;1.94;82.35;101143.25;5032733;28;20048;-67
2022/03/05 09:25:14;;;;;;;8.48;7.97;;;;;;;1.87;81.63;101143.75;5033151;28;20036;-67
2022/03/05 09:27:40;;;;;;;8.05;7.65;;;;;;;2.18;81.32;101150.34;5033342;28;20480;-66
2022/03/05 09:30:06;;;;;;;8.15;7.70;;;;;;;2.21;81.33;101143.13;5030940;28;20028;-67
2022/03/05 09:32:32;;;;;;;8.00;7.57;;;;;;;2.18;80.10;101145.13;5025047;28;20116;-68
2022/03/05 09:34:59;;;;;;;8.52;8.02;;;;;;;2.31;79.99;101151.19;5031201;28;20141;-65
2022/03/05 09:37:29;;;;;;;8.77;8.27;;;;;;;2.31;80.55;101140.72;5026256;28;20060;-67
2022/03/05 09:39:56;;;;;;;8.25;7.75;;;;;;;2.05;80.91;101136.41;5025804;28;20025;-69
2022/03/05 09:42:21;;;;;;;7.90;7.50;;;;;;;2.16;81.34;101150.47;5023705;28;20108;-67
2022/03/05 09:44:47;;;;;;;9.30;8.70;;;;;;;2.06;81.57;101159.91;5016868;28;20113;-67
2022/03/05 09:47:13;;;;;;;7.88;7.47;;;;;;;2.21;80.36;101139.69;5032239;28;20079;-67
2022/03/05 09:49:39;;;;;;;8.25;7.78;;;;;;;2.07;80.76;101153.72;5025007;28;20090;-68
2022/03/05 09:52:05;;;;;;;8.68;8.18;;;;;;;2.23;80.42;101156.13;5028270;28;20086;-68
2022/03/05 09:54:31;;;;;;;9.68;9.07;;;;;;;2.27;79.96;101152.31;5020438;28;20454;-67
2022/03/05 09:56:57;;;;;;;8.18;7.70;;;;;;;2.38;80.16;101144.59;5031943;28;20029;-68
2022/03/05 09:59:22;;;;;;;7.80;7.40;;;;;;;2.48;79.39;101145.59;5027523;28;20393;-67
2022/03/05 10:01:50;;;;;;;7.38;6.97;;;;;;;2.55;80.18;101155.66;5030659;28;20021;-70
2022/03/05 10:04:21;;;;;;;8.23;7.75;;;;;;;2.58;78.85;101151.06;5033367;28;20077;-69
2022/03/05 10:07:05;;;;;;;8.32;7.82;;;;;;;2.54;78.94;101149.56;5031435;28;20033;-68
2022/03/05 10:09:30;;;;;;;8.75;8.25;;;;;;;2.46;78.69;101147.50;5017075;28;20244;-66
2022/03/05 10:11:56;;;;;;;8.05;7.60;;;;;;;2.35;78.55;101152.66;5027483;28;20034;-65
2022/03/05 10:14:21;;;;;;;8.20;7.70;;;;;;;2.17;79.18;101143.44;5024352;28;20025;-66
2022/03/05 10:16:47;;;;;;;8.43;7.93;;;;;;;1.94;79.28;101138.00;5029434;28;20116;-67
2022/03/05 10:19:17;;;;;;;8.55;8.05;;;;;;;2.03;78.74;101154.84;5032291;28;20029;-65
2022/03/05 10:22:03;;;;;;;8.73;8.23;;;;;;;2.17;79.79;101154.75;5031925;28;20108;-66
2022/03/05 10:24:37;;;;;;;8.73;8.20;;;;;;;2.34;78.42;101148.34;5027943;28;20390;-67
2022/03/05 10:27:05;;;;;;;8.43;7.93;;;;;;;2.25;79.22;101151.59;5034248;28;20379;-67
2022/03/05 10:29:37;;;;;;;8.48;7.97;;;;;;;2.47;79.93;101161.44;5026346;28;20048;-67
2022/03/05 10:32:10;;;;;;;10.35;9.65;;;;;;;2.15;80.01;101146.16;5021238;28;20105;-67
2022/03/05 10:34:42;;;;;;;8.73;8.20;;;;;;;1.99;80.53;101147.34;5019183;28;20042;-68
2022/03/05 10:37:08;;;;;;;8.65;8.15;;;;;;;2.01;80.32;101148.91;5035040;28;20502;-66
2022/03/05 10:39:34;;;;;;;8.00;7.60;;;;;;;2.04;80.37;101155.69;5026314;28;20495;-68
2022/03/05 10:41:59;;;;;;;7.95;7.53;;;;;;;2.11;80.19;101149.94;5025660;28;20104;-66
2022/03/05 10:44:25;;;;;;;8.43;7.93;;;;;;;2.04;79.60;101150.44;5024778;28;20463;-67
2022/03/05 10:46:53;;;;;;;8.50;8.00;;;;;;;2.09;80.08;101151.00;5023283;28;20051;-67
2022/03/05 10:49:36;;;;;;;8.63;8.13;;;;;;;2.11;79.41;101138.63;5024048;28;20039;-68
2022/03/05 10:52:04;;;;;;;8.38;7.88;;;;;;;2.22;78.58;101154.44;5023585;28;20037;-65
2022/03/05 10:54:40;;;;;;;7.85;7.45;;;;;;;2.27;79.05;101161.97;5029470;28;20029;-67
2022/03/05 10:57:18;;;;;;;7.82;7.43;;;;;;;2.28;79.23;101158.41;5029295;28;20032;-69
2022/03/05 10:59:45;;;;;;;7.95;7.55;;;;;;;2.37;79.43;101155.16;5027309;28;20033;-66
2022/03/05 11:02:13;;;;;;;7.95;7.55;;;;;;;2.31;79.58;101156.41;5023377;28;20057;-66
2022/03/05 11:04:40;;;;;;;7.93;7.53;;;;;;;2.52;79.26;101158.50;5028099;28;20106;-67
2022/03/05 11:07:07;;;;;;;8.82;8.30;;;;;;;2.46;78.04;101155.34;5027565;28;20029;-65
2022/03/05 11:09:35;;;;;;;8.07;7.60;;;;;;;2.33;78.75;101140.59;5028927;28;20108;-65
2022/03/05 11:12:01;;;;;;;8.52;8.02;;;;;;;2.43;79.61;101149.50;5017987;28;20399;-66
2022/03/05 11:14:27;;;;;;;8.98;8.40;;;;;;;2.19;77.42;101134.53;5017403;28;20030;-69
2022/03/05 11:16:53;;;;;;;7.75;7.35;;;;;;;2.25;77.81;101143.75;5037006;28;20032;-66
2022/03/05 11:19:21;;;;;;;7.93;7.53;;;;;;;2.23;77.88;101143.03;5030452;28;20026;-66
2022/03/05 11:21:46;;;;;;;8.45;7.95;;;;;;;2.26;79.18;101136.72;5017825;28;20033;-66
2022/03/05 11:24:18;;;;;;;8.88;8.38;;;;;;;2.26;78.13;101136.72;5026963;28;20020;-66